sensor_id;sensor_type;location;lat;lon;timestamp;P1;durP1;ratioP1;P2;durP2;ratioP2
6850;SDS011;3464;42.728;23.296;2022-08-19T00:02:42;12.93;;;6.20;;
6850;SDS011;3464;42.728;23.296;2022-08-19T00:05:31;14.97;;;6.70;;
6850;SDS011;3464;42.728;23.296;2022-08-19T00:08:20;15.27;;;6.80;;
6850;SDS011;3464;42.728;23.296;2022-08-19T00:11:09;13.40;;;6.20;;
6850;SDS011;3464;42.728;23.296;2022-08-19T00:13:58;13.27;;;6.40;;
6850;SDS011;3464;42.728;23.296;2022-08-19T00:16:47;14.77;;;6.67;;
6850;SDS011;3464;42.728;23.296;2022-08-19T00:19:36;20.43;;;6.50;;
6850;SDS011;3464;42.728;23.296;2022-08-19T00:22:25;13.00;;;6.60;;
6850;SDS011;3464;42.728;23.296;2022-08-19T00:25:15;14.73;;;6.40;;
6850;SDS011;3464;42.728;23.296;2022-08-19T00:28:05;12.63;;;6.10;;
6850;SDS011;3464;42.728;23.296;2022-08-19T00:30:54;16.40;;;6.63;;
6850;SDS011;3464;42.728;23.296;2022-08-19T00:33:44;15.00;;;6.33;;
6850;SDS011;3464;42.728;23.296;2022-08-19T00:36:34;14.30;;;6.07;;
6850;SDS011;3464;42.728;23.296;2022-08-19T00:39:25;14.33;;;6.83;;
6850;SDS011;3464;42.728;23.296;2022-08-19T00:42:14;13.50;;;6.10;;
6850;SDS011;3464;42.728;23.296;2022-08-19T00:45:05;15.27;;;7.80;;
6850;SDS011;3464;42.728;23.296;2022-08-19T00:47:52;15.10;;;7.57;;
6850;SDS011;3464;42.728;23.296;2022-08-19T00:50:43;17.90;;;7.40;;
6850;SDS011;3464;42.728;23.296;2022-08-19T00:53:31;16.00;;;7.63;;
6850;SDS011;3464;42.728;23.296;2022-08-19T00:56:21;14.93;;;7.33;;
6850;SDS011;3464;42.728;23.296;2022-08-19T00:59:10;13.93;;;7.77;;
6850;SDS011;3464;42.728;23.296;2022-08-19T01:01:59;17.37;;;7.40;;
6850;SDS011;3464;42.728;23.296;2022-08-19T01:04:48;15.10;;;7.40;;
6850;SDS011;3464;42.728;23.296;2022-08-19T01:07:38;14.97;;;7.70;;
6850;SDS011;3464;42.728;23.296;2022-08-19T01:10:27;14.90;;;8.40;;
6850;SDS011;3464;42.728;23.296;2022-08-19T01:13:17;15.00;;;7.03;;
6850;SDS011;3464;42.728;23.296;2022-08-19T01:16:07;19.03;;;8.03;;
6850;SDS011;3464;42.728;23.296;2022-08-19T01:18:56;17.67;;;8.63;;
6850;SDS011;3464;42.728;23.296;2022-08-19T01:21:48;15.40;;;7.93;;
6850;SDS011;3464;42.728;23.296;2022-08-19T01:24:36;15.87;;;8.30;;
6850;SDS011;3464;42.728;23.296;2022-08-19T01:27:26;17.50;;;8.40;;
6850;SDS011;3464;42.728;23.296;2022-08-19T01:30:20;15.60;;;8.70;;
6850;SDS011;3464;42.728;23.296;2022-08-19T01:33:07;16.17;;;8.73;;
6850;SDS011;3464;42.728;23.296;2022-08-19T01:38:52;14.70;;;8.50;;
6850;SDS011;3464;42.728;23.296;2022-08-19T01:41:40;15.50;;;8.60;;
6850;SDS011;3464;42.728;23.296;2022-08-19T01:44:29;22.40;;;9.60;;
6850;SDS011;3464;42.728;23.296;2022-08-19T01:47:19;17.77;;;9.90;;
6850;SDS011;3464;42.728;23.296;2022-08-19T01:50:08;16.73;;;8.50;;
6850;SDS011;3464;42.728;23.296;2022-08-19T01:52:57;15.30;;;9.00;;
6850;SDS011;3464;42.728;23.296;2022-08-19T01:55:47;16.20;;;9.83;;
6850;SDS011;3464;42.728;23.296;2022-08-19T01:58:39;18.53;;;9.23;;
6850;SDS011;3464;42.728;23.296;2022-08-19T02:01:28;16.10;;;9.70;;
6850;SDS011;3464;42.728;23.296;2022-08-19T02:04:17;15.37;;;9.30;;
6850;SDS011;3464;42.728;23.296;2022-08-19T02:07:07;17.50;;;9.20;;
6850;SDS011;3464;42.728;23.296;2022-08-19T02:09:55;15.87;;;9.17;;
6850;SDS011;3464;42.728;23.296;2022-08-19T02:12:45;18.60;;;9.40;;
6850;SDS011;3464;42.728;23.296;2022-08-19T02:15:35;17.37;;;8.60;;
6850;SDS011;3464;42.728;23.296;2022-08-19T02:18:25;16.40;;;8.67;;
6850;SDS011;3464;42.728;23.296;2022-08-19T02:21:15;17.37;;;9.30;;
6850;SDS011;3464;42.728;23.296;2022-08-19T02:24:04;17.60;;;9.10;;
6850;SDS011;3464;42.728;23.296;2022-08-19T02:26:54;14.80;;;8.77;;
6850;SDS011;3464;42.728;23.296;2022-08-19T02:29:44;18.73;;;9.47;;
6850;SDS011;3464;42.728;23.296;2022-08-19T02:32:33;17.80;;;8.50;;
6850;SDS011;3464;42.728;23.296;2022-08-19T02:35:22;16.43;;;8.73;;
6850;SDS011;3464;42.728;23.296;2022-08-19T02:38:13;14.87;;;8.97;;
6850;SDS011;3464;42.728;23.296;2022-08-19T02:41:04;15.60;;;9.17;;
6850;SDS011;3464;42.728;23.296;2022-08-19T02:43:51;15.07;;;8.57;;
6850;SDS011;3464;42.728;23.296;2022-08-19T02:46:41;15.63;;;8.53;;
6850;SDS011;3464;42.728;23.296;2022-08-19T02:49:31;16.67;;;8.07;;
6850;SDS011;3464;42.728;23.296;2022-08-19T02:52:20;16.73;;;9.10;;
6850;SDS011;3464;42.728;23.296;2022-08-19T02:55:09;16.93;;;8.87;;
6850;SDS011;3464;42.728;23.296;2022-08-19T02:57:58;13.27;;;7.67;;
6850;SDS011;3464;42.728;23.296;2022-08-19T03:00:51;17.33;;;8.87;;
6850;SDS011;3464;42.728;23.296;2022-08-19T03:03:39;16.57;;;8.47;;
6850;SDS011;3464;42.728;23.296;2022-08-19T03:06:28;17.70;;;8.60;;
6850;SDS011;3464;42.728;23.296;2022-08-19T03:09:17;18.20;;;9.13;;
6850;SDS011;3464;42.728;23.296;2022-08-19T03:12:09;14.90;;;8.43;;
6850;SDS011;3464;42.728;23.296;2022-08-19T03:14:55;17.03;;;9.50;;
6850;SDS011;3464;42.728;23.296;2022-08-19T03:17:45;14.40;;;8.30;;
6850;SDS011;3464;42.728;23.296;2022-08-19T03:20:40;16.03;;;9.00;;
6850;SDS011;3464;42.728;23.296;2022-08-19T03:23:28;21.30;;;10.47;;
6850;SDS011;3464;42.728;23.296;2022-08-19T03:26:17;16.83;;;9.20;;
6850;SDS011;3464;42.728;23.296;2022-08-19T03:29:08;17.40;;;8.90;;
6850;SDS011;3464;42.728;23.296;2022-08-19T03:31:59;17.80;;;8.50;;
6850;SDS011;3464;42.728;23.296;2022-08-19T03:34:47;17.53;;;9.37;;
6850;SDS011;3464;42.728;23.296;2022-08-19T03:40:11;17.90;;;9.53;;
6850;SDS011;3464;42.728;23.296;2022-08-19T03:43:01;15.90;;;9.57;;
6850;SDS011;3464;42.728;23.296;2022-08-19T03:45:59;16.90;;;9.63;;
6850;SDS011;3464;42.728;23.296;2022-08-19T03:48:44;17.50;;;9.17;;
6850;SDS011;3464;42.728;23.296;2022-08-19T03:51:34;15.83;;;8.77;;
6850;SDS011;3464;42.728;23.296;2022-08-19T03:54:23;16.57;;;8.30;;
6850;SDS011;3464;42.728;23.296;2022-08-19T03:57:12;19.93;;;9.07;;
6850;SDS011;3464;42.728;23.296;2022-08-19T04:00:03;18.00;;;9.10;;
6850;SDS011;3464;42.728;23.296;2022-08-19T04:02:51;17.47;;;8.77;;
6850;SDS011;3464;42.728;23.296;2022-08-19T04:05:41;21.73;;;9.13;;
6850;SDS011;3464;42.728;23.296;2022-08-19T04:08:31;18.10;;;8.53;;
6850;SDS011;3464;42.728;23.296;2022-08-19T04:11:22;16.63;;;9.13;;
6850;SDS011;3464;42.728;23.296;2022-08-19T04:14:11;17.90;;;8.77;;
6850;SDS011;3464;42.728;23.296;2022-08-19T04:17:01;15.13;;;8.13;;
6850;SDS011;3464;42.728;23.296;2022-08-19T04:19:50;16.17;;;7.10;;
6850;SDS011;3464;42.728;23.296;2022-08-19T04:22:39;13.87;;;7.20;;
6850;SDS011;3464;42.728;23.296;2022-08-19T04:25:34;15.97;;;7.73;;
6850;SDS011;3464;42.728;23.296;2022-08-19T04:28:19;14.07;;;6.27;;
6850;SDS011;3464;42.728;23.296;2022-08-19T04:31:12;13.60;;;7.33;;
6850;SDS011;3464;42.728;23.296;2022-08-19T04:33:59;17.73;;;7.17;;
6850;SDS011;3464;42.728;23.296;2022-08-19T04:36:48;14.30;;;6.80;;
6850;SDS011;3464;42.728;23.296;2022-08-19T04:39:37;14.93;;;7.00;;
6850;SDS011;3464;42.728;23.296;2022-08-19T04:42:32;13.10;;;6.37;;
6850;SDS011;3464;42.728;23.296;2022-08-19T04:45:22;13.10;;;6.57;;
6850;SDS011;3464;42.728;23.296;2022-08-19T04:48:11;13.60;;;6.20;;
6850;SDS011;3464;42.728;23.296;2022-08-19T04:50:59;12.53;;;6.03;;
6850;SDS011;3464;42.728;23.296;2022-08-19T04:53:49;17.30;;;7.10;;
6850;SDS011;3464;42.728;23.296;2022-08-19T04:56:39;14.13;;;6.80;;
6850;SDS011;3464;42.728;23.296;2022-08-19T04:59:28;23.57;;;7.17;;
6850;SDS011;3464;42.728;23.296;2022-08-19T05:02:18;16.10;;;6.20;;
6850;SDS011;3464;42.728;23.296;2022-08-19T05:05:08;15.13;;;6.03;;
6850;SDS011;3464;42.728;23.296;2022-08-19T05:07:58;16.13;;;6.87;;
6850;SDS011;3464;42.728;23.296;2022-08-19T05:10:48;14.97;;;7.30;;
6850;SDS011;3464;42.728;23.296;2022-08-19T05:13:36;14.90;;;6.90;;
6850;SDS011;3464;42.728;23.296;2022-08-19T05:16:26;16.40;;;7.40;;
6850;SDS011;3464;42.728;23.296;2022-08-19T05:19:17;17.00;;;6.70;;
6850;SDS011;3464;42.728;23.296;2022-08-19T05:22:11;16.47;;;8.10;;
6850;SDS011;3464;42.728;23.296;2022-08-19T05:25:08;16.87;;;7.67;;
6850;SDS011;3464;42.728;23.296;2022-08-19T05:27:58;16.03;;;7.90;;
6850;SDS011;3464;42.728;23.296;2022-08-19T05:30:48;17.40;;;7.47;;
6850;SDS011;3464;42.728;23.296;2022-08-19T05:33:37;16.40;;;7.40;;
6850;SDS011;3464;42.728;23.296;2022-08-19T05:36:27;18.40;;;7.50;;
6850;SDS011;3464;42.728;23.296;2022-08-19T05:39:18;21.93;;;6.70;;
6850;SDS011;3464;42.728;23.296;2022-08-19T05:42:07;15.63;;;6.33;;
6850;SDS011;3464;42.728;23.296;2022-08-19T05:44:56;16.03;;;6.70;;
6850;SDS011;3464;42.728;23.296;2022-08-19T05:47:45;16.80;;;7.40;;
6850;SDS011;3464;42.728;23.296;2022-08-19T05:50:35;14.27;;;6.83;;
6850;SDS011;3464;42.728;23.296;2022-08-19T05:53:25;14.50;;;6.80;;
6850;SDS011;3464;42.728;23.296;2022-08-19T05:56:15;15.40;;;6.67;;
6850;SDS011;3464;42.728;23.296;2022-08-19T05:59:05;15.90;;;6.23;;
6850;SDS011;3464;42.728;23.296;2022-08-19T06:01:54;16.70;;;6.40;;
6850;SDS011;3464;42.728;23.296;2022-08-19T06:04:43;14.30;;;5.87;;
6850;SDS011;3464;42.728;23.296;2022-08-19T06:07:33;16.37;;;6.10;;
6850;SDS011;3464;42.728;23.296;2022-08-19T06:10:23;14.33;;;5.40;;
6850;SDS011;3464;42.728;23.296;2022-08-19T06:13:12;12.50;;;5.27;;
6850;SDS011;3464;42.728;23.296;2022-08-19T06:16:02;15.70;;;6.07;;
6850;SDS011;3464;42.728;23.296;2022-08-19T06:18:53;11.57;;;5.33;;
6850;SDS011;3464;42.728;23.296;2022-08-19T06:21:44;13.87;;;5.73;;
6850;SDS011;3464;42.728;23.296;2022-08-19T06:24:32;15.83;;;4.90;;
6850;SDS011;3464;42.728;23.296;2022-08-19T06:27:22;16.83;;;5.57;;
6850;SDS011;3464;42.728;23.296;2022-08-19T06:30:11;12.90;;;4.70;;
6850;SDS011;3464;42.728;23.296;2022-08-19T06:33:01;13.40;;;5.60;;
6850;SDS011;3464;42.728;23.296;2022-08-19T06:35:50;15.23;;;5.27;;
6850;SDS011;3464;42.728;23.296;2022-08-19T06:38:40;11.73;;;5.20;;
6850;SDS011;3464;42.728;23.296;2022-08-19T06:41:30;12.60;;;4.97;;
6850;SDS011;3464;42.728;23.296;2022-08-19T06:44:20;13.07;;;5.30;;
6850;SDS011;3464;42.728;23.296;2022-08-19T06:47:11;15.73;;;5.37;;
6850;SDS011;3464;42.728;23.296;2022-08-19T06:50:00;11.30;;;5.20;;
6850;SDS011;3464;42.728;23.296;2022-08-19T06:52:49;14.60;;;5.27;;
6850;SDS011;3464;42.728;23.296;2022-08-19T06:55:39;16.77;;;5.70;;
6850;SDS011;3464;42.728;23.296;2022-08-19T06:58:29;12.60;;;5.20;;
6850;SDS011;3464;42.728;23.296;2022-08-19T07:01:18;14.43;;;5.83;;
6850;SDS011;3464;42.728;23.296;2022-08-19T07:04:07;12.70;;;5.30;;
6850;SDS011;3464;42.728;23.296;2022-08-19T07:06:59;13.80;;;5.40;;
6850;SDS011;3464;42.728;23.296;2022-08-19T07:09:48;13.73;;;5.80;;
6850;SDS011;3464;42.728;23.296;2022-08-19T07:12:38;19.60;;;5.93;;
6850;SDS011;3464;42.728;23.296;2022-08-19T07:15:27;19.97;;;5.70;;
6850;SDS011;3464;42.728;23.296;2022-08-19T07:18:18;16.77;;;6.00;;
6850;SDS011;3464;42.728;23.296;2022-08-19T07:21:07;15.57;;;5.60;;
6850;SDS011;3464;42.728;23.296;2022-08-19T07:23:56;18.87;;;6.73;;
6850;SDS011;3464;42.728;23.296;2022-08-19T07:26:45;16.77;;;6.53;;
6850;SDS011;3464;42.728;23.296;2022-08-19T07:29:35;17.50;;;6.53;;
6850;SDS011;3464;42.728;23.296;2022-08-19T07:32:24;18.90;;;5.90;;
6850;SDS011;3464;42.728;23.296;2022-08-19T07:35:13;23.90;;;6.10;;
6850;SDS011;3464;42.728;23.296;2022-08-19T07:38:03;20.43;;;6.07;;
6850;SDS011;3464;42.728;23.296;2022-08-19T07:40:52;17.90;;;6.20;;
6850;SDS011;3464;42.728;23.296;2022-08-19T07:43:41;13.60;;;5.60;;
6850;SDS011;3464;42.728;23.296;2022-08-19T07:46:31;19.57;;;6.00;;
6850;SDS011;3464;42.728;23.296;2022-08-19T07:49:21;20.00;;;6.33;;
6850;SDS011;3464;42.728;23.296;2022-08-19T07:52:09;21.23;;;5.83;;
6850;SDS011;3464;42.728;23.296;2022-08-19T07:54:59;15.93;;;6.10;;
6850;SDS011;3464;42.728;23.296;2022-08-19T07:57:48;13.83;;;5.93;;
6850;SDS011;3464;42.728;23.296;2022-08-19T08:00:37;14.67;;;6.00;;
6850;SDS011;3464;42.728;23.296;2022-08-19T08:03:27;15.60;;;5.90;;
6850;SDS011;3464;42.728;23.296;2022-08-19T08:06:23;19.23;;;6.40;;
6850;SDS011;3464;42.728;23.296;2022-08-19T08:09:19;15.33;;;6.40;;
6850;SDS011;3464;42.728;23.296;2022-08-19T08:12:11;15.43;;;6.70;;
6850;SDS011;3464;42.728;23.296;2022-08-19T08:14:59;17.30;;;6.57;;
6850;SDS011;3464;42.728;23.296;2022-08-19T08:17:49;18.30;;;7.03;;
6850;SDS011;3464;42.728;23.296;2022-08-19T08:20:38;19.70;;;7.50;;
6850;SDS011;3464;42.728;23.296;2022-08-19T08:23:28;18.00;;;7.10;;
6850;SDS011;3464;42.728;23.296;2022-08-19T08:26:17;16.33;;;7.00;;
6850;SDS011;3464;42.728;23.296;2022-08-19T08:29:08;23.80;;;7.20;;
6850;SDS011;3464;42.728;23.296;2022-08-19T08:31:58;21.23;;;7.10;;
6850;SDS011;3464;42.728;23.296;2022-08-19T08:34:48;14.60;;;6.00;;
6850;SDS011;3464;42.728;23.296;2022-08-19T08:37:38;19.47;;;6.53;;
6850;SDS011;3464;42.728;23.296;2022-08-19T08:40:33;15.33;;;5.93;;
6850;SDS011;3464;42.728;23.296;2022-08-19T08:43:28;14.17;;;6.73;;
6850;SDS011;3464;42.728;23.296;2022-08-19T08:46:21;16.53;;;6.10;;
6850;SDS011;3464;42.728;23.296;2022-08-19T08:49:43;17.87;;;6.27;;
6850;SDS011;3464;42.728;23.296;2022-08-19T08:52:15;17.90;;;6.17;;
6850;SDS011;3464;42.728;23.296;2022-08-19T08:55:05;17.60;;;5.90;;
6850;SDS011;3464;42.728;23.296;2022-08-19T09:00:51;15.83;;;6.13;;
6850;SDS011;3464;42.728;23.296;2022-08-19T09:03:41;19.93;;;5.63;;
6850;SDS011;3464;42.728;23.296;2022-08-19T09:06:49;15.90;;;5.90;;
6850;SDS011;3464;42.728;23.296;2022-08-19T09:09:35;15.30;;;5.57;;
6850;SDS011;3464;42.728;23.296;2022-08-19T09:12:28;13.50;;;6.27;;
6850;SDS011;3464;42.728;23.296;2022-08-19T09:15:15;16.10;;;6.30;;
6850;SDS011;3464;42.728;23.296;2022-08-19T09:18:04;13.40;;;5.80;;
6850;SDS011;3464;42.728;23.296;2022-08-19T09:20:53;13.97;;;6.87;;
6850;SDS011;3464;42.728;23.296;2022-08-19T09:23:43;13.70;;;6.20;;
6850;SDS011;3464;42.728;23.296;2022-08-19T09:26:33;20.20;;;5.97;;
6850;SDS011;3464;42.728;23.296;2022-08-19T09:29:22;16.13;;;8.73;;
6850;SDS011;3464;42.728;23.296;2022-08-19T09:32:12;12.33;;;4.47;;
6850;SDS011;3464;42.728;23.296;2022-08-19T09:35:02;11.13;;;4.30;;
6850;SDS011;3464;42.728;23.296;2022-08-19T09:37:51;13.13;;;4.73;;
6850;SDS011;3464;42.728;23.296;2022-08-19T09:40:41;12.00;;;4.70;;
6850;SDS011;3464;42.728;23.296;2022-08-19T09:43:30;12.20;;;4.43;;
6850;SDS011;3464;42.728;23.296;2022-08-19T09:46:19;10.97;;;4.33;;
6850;SDS011;3464;42.728;23.296;2022-08-19T09:49:08;11.73;;;4.67;;
6850;SDS011;3464;42.728;23.296;2022-08-19T09:51:58;10.60;;;3.90;;
6850;SDS011;3464;42.728;23.296;2022-08-19T09:54:51;15.10;;;5.10;;
6850;SDS011;3464;42.728;23.296;2022-08-19T09:57:40;14.50;;;6.17;;
6850;SDS011;3464;42.728;23.296;2022-08-19T10:00:29;12.43;;;4.67;;
6850;SDS011;3464;42.728;23.296;2022-08-19T10:03:19;19.73;;;5.97;;
6850;SDS011;3464;42.728;23.296;2022-08-19T10:06:08;35.00;;;11.17;;
6850;SDS011;3464;42.728;23.296;2022-08-19T10:08:58;11.97;;;5.10;;
6850;SDS011;3464;42.728;23.296;2022-08-19T10:11:48;19.70;;;6.73;;
6850;SDS011;3464;42.728;23.296;2022-08-19T10:14:37;17.43;;;6.37;;
6850;SDS011;3464;42.728;23.296;2022-08-19T10:17:26;13.57;;;5.80;;
6850;SDS011;3464;42.728;23.296;2022-08-19T10:20:14;12.73;;;4.73;;
6850;SDS011;3464;42.728;23.296;2022-08-19T10:23:03;12.53;;;3.97;;
6850;SDS011;3464;42.728;23.296;2022-08-19T10:25:53;13.37;;;4.30;;
6850;SDS011;3464;42.728;23.296;2022-08-19T10:28:42;12.07;;;4.70;;
6850;SDS011;3464;42.728;23.296;2022-08-19T10:31:32;12.80;;;4.47;;
6850;SDS011;3464;42.728;23.296;2022-08-19T10:34:21;11.57;;;5.10;;
6850;SDS011;3464;42.728;23.296;2022-08-19T10:37:11;12.17;;;4.63;;
6850;SDS011;3464;42.728;23.296;2022-08-19T10:40:01;11.73;;;5.33;;
6850;SDS011;3464;42.728;23.296;2022-08-19T10:42:50;13.30;;;5.67;;
6850;SDS011;3464;42.728;23.296;2022-08-19T10:45:39;14.23;;;5.60;;
6850;SDS011;3464;42.728;23.296;2022-08-19T10:48:34;14.90;;;5.60;;
6850;SDS011;3464;42.728;23.296;2022-08-19T10:51:23;13.63;;;5.13;;
6850;SDS011;3464;42.728;23.296;2022-08-19T10:54:19;18.63;;;4.77;;
6850;SDS011;3464;42.728;23.296;2022-08-19T10:57:15;16.07;;;5.30;;
6850;SDS011;3464;42.728;23.296;2022-08-19T11:00:05;12.70;;;5.13;;
6850;SDS011;3464;42.728;23.296;2022-08-19T11:02:54;13.80;;;4.97;;
6850;SDS011;3464;42.728;23.296;2022-08-19T11:05:44;13.63;;;5.80;;
6850;SDS011;3464;42.728;23.296;2022-08-19T11:08:37;14.70;;;5.20;;
6850;SDS011;3464;42.728;23.296;2022-08-19T11:11:26;15.50;;;5.33;;
6850;SDS011;3464;42.728;23.296;2022-08-19T11:14:17;13.30;;;5.17;;
6850;SDS011;3464;42.728;23.296;2022-08-19T11:17:05;17.60;;;5.57;;
6850;SDS011;3464;42.728;23.296;2022-08-19T11:19:54;12.00;;;5.20;;
6850;SDS011;3464;42.728;23.296;2022-08-19T11:22:44;11.90;;;5.50;;
6850;SDS011;3464;42.728;23.296;2022-08-19T11:25:34;13.00;;;6.10;;
6850;SDS011;3464;42.728;23.296;2022-08-19T11:28:24;12.77;;;6.30;;
6850;SDS011;3464;42.728;23.296;2022-08-19T11:31:15;15.93;;;5.80;;
6850;SDS011;3464;42.728;23.296;2022-08-19T11:34:06;12.90;;;6.13;;
6850;SDS011;3464;42.728;23.296;2022-08-19T11:36:54;15.70;;;6.10;;
6850;SDS011;3464;42.728;23.296;2022-08-19T11:39:44;13.17;;;5.60;;
6850;SDS011;3464;42.728;23.296;2022-08-19T11:42:34;15.00;;;5.40;;
6850;SDS011;3464;42.728;23.296;2022-08-19T11:45:27;12.63;;;4.80;;
6850;SDS011;3464;42.728;23.296;2022-08-19T11:48:17;14.23;;;4.80;;
6850;SDS011;3464;42.728;23.296;2022-08-19T11:51:08;13.27;;;5.37;;
6850;SDS011;3464;42.728;23.296;2022-08-19T11:53:56;13.40;;;5.10;;
6850;SDS011;3464;42.728;23.296;2022-08-19T11:56:45;21.17;;;5.47;;
6850;SDS011;3464;42.728;23.296;2022-08-19T11:59:35;12.40;;;4.93;;
6850;SDS011;3464;42.728;23.296;2022-08-19T12:02:24;12.83;;;4.90;;
6850;SDS011;3464;42.728;23.296;2022-08-19T12:05:13;14.83;;;5.90;;
6850;SDS011;3464;42.728;23.296;2022-08-19T12:08:04;14.23;;;5.37;;
6850;SDS011;3464;42.728;23.296;2022-08-19T12:10:54;14.43;;;5.70;;
6850;SDS011;3464;42.728;23.296;2022-08-19T12:13:43;15.60;;;4.97;;
6850;SDS011;3464;42.728;23.296;2022-08-19T12:16:32;13.90;;;5.47;;
6850;SDS011;3464;42.728;23.296;2022-08-19T12:19:21;12.93;;;5.20;;
6850;SDS011;3464;42.728;23.296;2022-08-19T12:22:10;11.97;;;5.23;;
6850;SDS011;3464;42.728;23.296;2022-08-19T12:24:59;13.00;;;5.40;;
6850;SDS011;3464;42.728;23.296;2022-08-19T12:27:49;15.53;;;5.40;;
6850;SDS011;3464;42.728;23.296;2022-08-19T12:30:39;13.17;;;5.07;;
6850;SDS011;3464;42.728;23.296;2022-08-19T12:33:28;13.10;;;5.10;;
6850;SDS011;3464;42.728;23.296;2022-08-19T12:36:17;13.17;;;4.97;;
6850;SDS011;3464;42.728;23.296;2022-08-19T12:39:07;11.43;;;4.70;;
6850;SDS011;3464;42.728;23.296;2022-08-19T12:41:57;14.83;;;5.43;;
6850;SDS011;3464;42.728;23.296;2022-08-19T12:47:48;13.60;;;5.50;;
6850;SDS011;3464;42.728;23.296;2022-08-19T12:50:39;12.00;;;5.57;;
6850;SDS011;3464;42.728;23.296;2022-08-19T12:53:25;12.30;;;5.20;;
6850;SDS011;3464;42.728;23.296;2022-08-19T12:56:14;10.97;;;5.10;;
6850;SDS011;3464;42.728;23.296;2022-08-19T12:59:04;16.50;;;5.60;;
6850;SDS011;3464;42.728;23.296;2022-08-19T13:01:53;17.93;;;5.10;;
6850;SDS011;3464;42.728;23.296;2022-08-19T13:04:44;12.60;;;4.47;;
6850;SDS011;3464;42.728;23.296;2022-08-19T13:07:33;14.80;;;5.57;;
6850;SDS011;3464;42.728;23.296;2022-08-19T13:10:25;15.27;;;5.33;;
6850;SDS011;3464;42.728;23.296;2022-08-19T13:13:14;17.80;;;5.80;;
6850;SDS011;3464;42.728;23.296;2022-08-19T13:16:03;15.90;;;5.53;;
6850;SDS011;3464;42.728;23.296;2022-08-19T13:18:53;16.20;;;5.57;;
6850;SDS011;3464;42.728;23.296;2022-08-19T13:21:42;14.50;;;5.40;;
6850;SDS011;3464;42.728;23.296;2022-08-19T13:24:32;13.40;;;4.70;;
6850;SDS011;3464;42.728;23.296;2022-08-19T13:27:22;14.63;;;4.67;;
6850;SDS011;3464;42.728;23.296;2022-08-19T13:30:11;15.60;;;5.10;;
6850;SDS011;3464;42.728;23.296;2022-08-19T13:33:06;15.03;;;4.27;;
6850;SDS011;3464;42.728;23.296;2022-08-19T13:35:57;17.13;;;5.30;;
6850;SDS011;3464;42.728;23.296;2022-08-19T13:38:47;15.73;;;5.20;;
6850;SDS011;3464;42.728;23.296;2022-08-19T13:41:42;13.50;;;5.43;;
6850;SDS011;3464;42.728;23.296;2022-08-19T13:44:27;14.60;;;4.80;;
6850;SDS011;3464;42.728;23.296;2022-08-19T13:47:16;12.90;;;5.40;;
6850;SDS011;3464;42.728;23.296;2022-08-19T13:50:06;13.50;;;5.80;;
6850;SDS011;3464;42.728;23.296;2022-08-19T13:52:55;16.90;;;5.50;;
6850;SDS011;3464;42.728;23.296;2022-08-19T13:55:45;15.27;;;4.87;;
6850;SDS011;3464;42.728;23.296;2022-08-19T13:58:34;12.77;;;4.53;;
6850;SDS011;3464;42.728;23.296;2022-08-19T14:01:23;14.97;;;5.40;;
6850;SDS011;3464;42.728;23.296;2022-08-19T14:04:13;15.33;;;4.80;;
6850;SDS011;3464;42.728;23.296;2022-08-19T14:07:01;12.40;;;4.63;;
6850;SDS011;3464;42.728;23.296;2022-08-19T14:09:51;17.33;;;5.50;;
6850;SDS011;3464;42.728;23.296;2022-08-19T14:12:41;14.37;;;5.30;;
6850;SDS011;3464;42.728;23.296;2022-08-19T14:15:29;15.93;;;5.30;;
6850;SDS011;3464;42.728;23.296;2022-08-19T14:18:19;13.60;;;5.23;;
6850;SDS011;3464;42.728;23.296;2022-08-19T14:21:13;12.10;;;5.00;;
6850;SDS011;3464;42.728;23.296;2022-08-19T14:23:58;12.60;;;4.97;;
6850;SDS011;3464;42.728;23.296;2022-08-19T14:26:47;17.37;;;7.10;;
6850;SDS011;3464;42.728;23.296;2022-08-19T14:29:36;17.13;;;6.20;;
6850;SDS011;3464;42.728;23.296;2022-08-19T14:32:26;14.97;;;5.33;;
6850;SDS011;3464;42.728;23.296;2022-08-19T14:35:17;17.20;;;6.80;;
6850;SDS011;3464;42.728;23.296;2022-08-19T14:38:14;18.90;;;6.93;;
6850;SDS011;3464;42.728;23.296;2022-08-19T14:40:56;28.13;;;8.63;;
6850;SDS011;3464;42.728;23.296;2022-08-19T14:43:48;18.63;;;5.70;;
6850;SDS011;3464;42.728;23.296;2022-08-19T14:46:36;14.33;;;5.17;;
6850;SDS011;3464;42.728;23.296;2022-08-19T14:49:25;23.87;;;6.87;;
6850;SDS011;3464;42.728;23.296;2022-08-19T14:52:15;16.57;;;5.93;;
6850;SDS011;3464;42.728;23.296;2022-08-19T14:55:04;17.80;;;5.60;;
6850;SDS011;3464;42.728;23.296;2022-08-19T14:57:53;16.90;;;6.53;;
6850;SDS011;3464;42.728;23.296;2022-08-19T15:00:42;23.27;;;7.47;;
6850;SDS011;3464;42.728;23.296;2022-08-19T15:03:32;20.63;;;6.10;;
6850;SDS011;3464;42.728;23.296;2022-08-19T15:06:23;12.73;;;5.40;;
6850;SDS011;3464;42.728;23.296;2022-08-19T15:09:11;15.40;;;5.43;;
6850;SDS011;3464;42.728;23.296;2022-08-19T15:12:00;18.37;;;6.23;;
6850;SDS011;3464;42.728;23.296;2022-08-19T15:14:50;13.60;;;5.67;;
6850;SDS011;3464;42.728;23.296;2022-08-19T15:17:41;12.70;;;5.30;;
6850;SDS011;3464;42.728;23.296;2022-08-19T15:20:30;17.80;;;6.27;;
6850;SDS011;3464;42.728;23.296;2022-08-19T15:23:20;14.80;;;5.50;;
6850;SDS011;3464;42.728;23.296;2022-08-19T15:26:09;15.67;;;6.30;;
6850;SDS011;3464;42.728;23.296;2022-08-19T15:28:59;15.23;;;6.10;;
6850;SDS011;3464;42.728;23.296;2022-08-19T15:31:48;14.97;;;5.80;;
6850;SDS011;3464;42.728;23.296;2022-08-19T15:34:38;12.13;;;5.63;;
6850;SDS011;3464;42.728;23.296;2022-08-19T15:37:28;15.90;;;5.40;;
6850;SDS011;3464;42.728;23.296;2022-08-19T15:40:17;15.47;;;6.10;;
6850;SDS011;3464;42.728;23.296;2022-08-19T15:43:07;16.10;;;5.80;;
6850;SDS011;3464;42.728;23.296;2022-08-19T15:45:57;15.00;;;6.20;;
6850;SDS011;3464;42.728;23.296;2022-08-19T15:48:47;24.67;;;7.37;;
6850;SDS011;3464;42.728;23.296;2022-08-19T15:51:36;13.83;;;6.40;;
6850;SDS011;3464;42.728;23.296;2022-08-19T15:54:25;15.80;;;5.73;;
6850;SDS011;3464;42.728;23.296;2022-08-19T15:57:14;22.20;;;6.57;;
6850;SDS011;3464;42.728;23.296;2022-08-19T16:00:10;21.83;;;5.87;;
6850;SDS011;3464;42.728;23.296;2022-08-19T16:03:04;16.17;;;5.90;;
6850;SDS011;3464;42.728;23.296;2022-08-19T16:06:00;15.80;;;5.67;;
6850;SDS011;3464;42.728;23.296;2022-08-19T16:08:56;16.97;;;6.03;;
6850;SDS011;3464;42.728;23.296;2022-08-19T16:11:44;15.73;;;5.63;;
6850;SDS011;3464;42.728;23.296;2022-08-19T16:14:33;14.53;;;5.10;;
6850;SDS011;3464;42.728;23.296;2022-08-19T16:17:22;16.80;;;6.07;;
6850;SDS011;3464;42.728;23.296;2022-08-19T16:20:12;13.03;;;5.60;;
6850;SDS011;3464;42.728;23.296;2022-08-19T16:23:03;13.37;;;5.43;;
6850;SDS011;3464;42.728;23.296;2022-08-19T16:25:53;16.13;;;5.90;;
6850;SDS011;3464;42.728;23.296;2022-08-19T16:28:43;14.43;;;5.37;;
6850;SDS011;3464;42.728;23.296;2022-08-19T16:31:32;14.20;;;5.00;;
6850;SDS011;3464;42.728;23.296;2022-08-19T16:34:22;13.87;;;5.17;;
6850;SDS011;3464;42.728;23.296;2022-08-19T16:37:12;21.03;;;5.30;;
6850;SDS011;3464;42.728;23.296;2022-08-19T16:40:02;13.50;;;5.03;;
6850;SDS011;3464;42.728;23.296;2022-08-19T16:42:51;17.90;;;5.30;;
6850;SDS011;3464;42.728;23.296;2022-08-19T16:45:40;19.00;;;5.80;;
6850;SDS011;3464;42.728;23.296;2022-08-19T16:48:30;15.43;;;5.17;;
6850;SDS011;3464;42.728;23.296;2022-08-19T16:51:19;15.77;;;5.33;;
6850;SDS011;3464;42.728;23.296;2022-08-19T16:54:09;15.70;;;5.17;;
6850;SDS011;3464;42.728;23.296;2022-08-19T16:56:58;14.50;;;5.90;;
6850;SDS011;3464;42.728;23.296;2022-08-19T16:59:47;14.07;;;5.90;;
6850;SDS011;3464;42.728;23.296;2022-08-19T17:02:37;16.60;;;5.60;;
6850;SDS011;3464;42.728;23.296;2022-08-19T17:05:26;16.70;;;5.60;;
6850;SDS011;3464;42.728;23.296;2022-08-19T17:08:17;16.93;;;6.43;;
6850;SDS011;3464;42.728;23.296;2022-08-19T17:11:06;18.47;;;6.17;;
6850;SDS011;3464;42.728;23.296;2022-08-19T17:13:56;13.23;;;6.00;;
6850;SDS011;3464;42.728;23.296;2022-08-19T17:16:45;15.17;;;6.30;;